sensor_id;sensor_type;location;lat;lon;timestamp;pressure;altitude;pressure_sealevel;temperature
69007;BMP180;56061;51.748;19.620;2022-08-19T00:01:58;98546.00;;;19.80
69007;BMP180;56061;51.748;19.620;2022-08-19T00:04:30;98541.00;;;19.80
69007;BMP180;56061;51.748;19.620;2022-08-19T00:06:58;98540.40;;;19.70
69007;BMP180;56061;51.748;19.620;2022-08-19T00:09:26;98543.40;;;19.70
69007;BMP180;56061;51.748;19.620;2022-08-19T00:11:55;98544.00;;;19.70
69007;BMP180;56061;51.748;19.620;2022-08-19T00:14:24;98534.40;;;19.60
69007;BMP180;56061;51.748;19.620;2022-08-19T00:16:52;98530.00;;;19.60
69007;BMP180;56061;51.748;19.620;2022-08-19T00:19:22;98524.20;;;19.50
69007;BMP180;56061;51.748;19.620;2022-08-19T00:21:50;98523.40;;;19.50
69007;BMP180;56061;51.748;19.620;2022-08-19T00:24:17;98523.00;;;19.48
69007;BMP180;56061;51.748;19.620;2022-08-19T00:26:44;98517.20;;;19.40
69007;BMP180;56061;51.748;19.620;2022-08-19T00:29:17;98518.00;;;19.50
69007;BMP180;56061;51.748;19.620;2022-08-19T00:31:45;98519.20;;;19.50
69007;BMP180;56061;51.748;19.620;2022-08-19T00:34:14;98518.60;;;19.50
69007;BMP180;56061;51.748;19.620;2022-08-19T00:36:42;98516.60;;;19.60
69007;BMP180;56061;51.748;19.620;2022-08-19T00:39:12;98516.40;;;19.60
69007;BMP180;56061;51.748;19.620;2022-08-19T00:41:39;98514.80;;;19.60
69007;BMP180;56061;51.748;19.620;2022-08-19T00:46:44;98512.40;;;19.60
69007;BMP180;56061;51.748;19.620;2022-08-19T00:49:35;98504.60;;;19.62
69007;BMP180;56061;51.748;19.620;2022-08-19T00:52:21;98501.20;;;19.64
69007;BMP180;56061;51.748;19.620;2022-08-19T00:54:50;98505.00;;;19.60
69007;BMP180;56061;51.748;19.620;2022-08-19T00:57:26;98503.60;;;19.66
69007;BMP180;56061;51.748;19.620;2022-08-19T00:59:56;98509.20;;;19.70
69007;BMP180;56061;51.748;19.620;2022-08-19T01:02:30;98515.60;;;19.70
69007;BMP180;56061;51.748;19.620;2022-08-19T01:05:02;98517.80;;;19.80
69007;BMP180;56061;51.748;19.620;2022-08-19T01:07:28;98521.00;;;19.80
69007;BMP180;56061;51.748;19.620;2022-08-19T01:10:07;98520.00;;;19.90
69007;BMP180;56061;51.748;19.620;2022-08-19T01:12:35;98520.40;;;19.90
69007;BMP180;56061;51.748;19.620;2022-08-19T01:15:05;98517.80;;;20.00
69007;BMP180;56061;51.748;19.620;2022-08-19T01:17:34;98518.60;;;20.00
69007;BMP180;56061;51.748;19.620;2022-08-19T01:20:04;98515.60;;;20.00
69007;BMP180;56061;51.748;19.620;2022-08-19T01:25:07;98520.20;;;19.90
69007;BMP180;56061;51.748;19.620;2022-08-19T01:27:45;98524.80;;;19.90
69007;BMP180;56061;51.748;19.620;2022-08-19T01:30:24;98525.60;;;19.90
69007;BMP180;56061;51.748;19.620;2022-08-19T01:32:52;98517.60;;;19.90
69007;BMP180;56061;51.748;19.620;2022-08-19T01:35:21;98511.20;;;19.88
69007;BMP180;56061;51.748;19.620;2022-08-19T01:37:56;98505.20;;;19.82
69007;BMP180;56061;51.748;19.620;2022-08-19T01:40:28;98506.40;;;19.80
69007;BMP180;56061;51.748;19.620;2022-08-19T01:42:55;98504.40;;;19.80
69007;BMP180;56061;51.748;19.620;2022-08-19T01:45:25;98501.80;;;19.80
69007;BMP180;56061;51.748;19.620;2022-08-19T01:47:53;98500.00;;;19.70
69007;BMP180;56061;51.748;19.620;2022-08-19T01:50:30;98501.60;;;19.70
69007;BMP180;56061;51.748;19.620;2022-08-19T01:52:57;98493.40;;;19.60
69007;BMP180;56061;51.748;19.620;2022-08-19T01:55:36;98485.80;;;19.60
69007;BMP180;56061;51.748;19.620;2022-08-19T01:58:13;98481.40;;;19.50
69007;BMP180;56061;51.748;19.620;2022-08-19T02:00:41;98478.00;;;19.50
69007;BMP180;56061;51.748;19.620;2022-08-19T02:03:09;98475.60;;;19.40
69007;BMP180;56061;51.748;19.620;2022-08-19T02:05:36;98476.00;;;19.40
69007;BMP180;56061;51.748;19.620;2022-08-19T02:08:05;98477.00;;;19.40
69007;BMP180;56061;51.748;19.620;2022-08-19T02:13:19;98472.20;;;19.42
69007;BMP180;56061;51.748;19.620;2022-08-19T02:15:51;98466.60;;;19.50
69007;BMP180;56061;51.748;19.620;2022-08-19T02:18:18;98458.00;;;19.54
69007;BMP180;56061;51.748;19.620;2022-08-19T02:20:46;98464.60;;;19.60
69007;BMP180;56061;51.748;19.620;2022-08-19T02:23:16;98459.00;;;19.60
69007;BMP180;56061;51.748;19.620;2022-08-19T02:25:46;98459.80;;;19.66
69007;BMP180;56061;51.748;19.620;2022-08-19T02:28:14;98462.20;;;19.70
69007;BMP180;56061;51.748;19.620;2022-08-19T02:30:46;98463.80;;;19.80
69007;BMP180;56061;51.748;19.620;2022-08-19T02:33:13;98467.40;;;19.80
69007;BMP180;56061;51.748;19.620;2022-08-19T02:35:46;98465.40;;;19.90
69007;BMP180;56061;51.748;19.620;2022-08-19T02:38:13;98461.40;;;20.00
69007;BMP180;56061;51.748;19.620;2022-08-19T02:40:58;98458.80;;;20.10
69007;BMP180;56061;51.748;19.620;2022-08-19T02:43:27;98459.80;;;20.20
69007;BMP180;56061;51.748;19.620;2022-08-19T02:45:59;98453.40;;;20.20
69007;BMP180;56061;51.748;19.620;2022-08-19T02:48:26;98456.20;;;20.30
69007;BMP180;56061;51.748;19.620;2022-08-19T02:50:53;98451.00;;;20.30
69007;BMP180;56061;51.748;19.620;2022-08-19T02:53:26;98445.40;;;20.40
69007;BMP180;56061;51.748;19.620;2022-08-19T02:55:54;98441.60;;;20.40
69007;BMP180;56061;51.748;19.620;2022-08-19T02:58:22;98435.00;;;20.50
69007;BMP180;56061;51.748;19.620;2022-08-19T03:00:54;98432.40;;;20.50
69007;BMP180;56061;51.748;19.620;2022-08-19T03:03:21;98433.20;;;20.60
69007;BMP180;56061;51.748;19.620;2022-08-19T03:05:48;98438.20;;;20.60
69007;BMP180;56061;51.748;19.620;2022-08-19T03:08:23;98443.60;;;20.60
69007;BMP180;56061;51.748;19.620;2022-08-19T03:10:50;98441.00;;;20.60
69007;BMP180;56061;51.748;19.620;2022-08-19T03:13:19;98439.00;;;20.60
69007;BMP180;56061;51.748;19.620;2022-08-19T03:15:47;98445.40;;;20.60
69007;BMP180;56061;51.748;19.620;2022-08-19T03:18:16;98451.20;;;20.60
69007;BMP180;56061;51.748;19.620;2022-08-19T03:20:50;98450.40;;;20.60
69007;BMP180;56061;51.748;19.620;2022-08-19T03:23:19;98445.40;;;20.60
69007;BMP180;56061;51.748;19.620;2022-08-19T03:25:48;98449.00;;;20.64
69007;BMP180;56061;51.748;19.620;2022-08-19T03:28:36;98453.40;;;20.70
69007;BMP180;56061;51.748;19.620;2022-08-19T03:31:09;98451.60;;;20.70
69007;BMP180;56061;51.748;19.620;2022-08-19T03:33:56;98452.60;;;20.80
69007;BMP180;56061;51.748;19.620;2022-08-19T03:36:26;98447.80;;;20.80
69007;BMP180;56061;51.748;19.620;2022-08-19T03:38:59;98445.80;;;20.90
69007;BMP180;56061;51.748;19.620;2022-08-19T03:41:48;98448.40;;;20.90
69007;BMP180;56061;51.748;19.620;2022-08-19T03:44:36;98447.40;;;20.90
69007;BMP180;56061;51.748;19.620;2022-08-19T03:47:05;98450.80;;;20.90
69007;BMP180;56061;51.748;19.620;2022-08-19T03:49:32;98448.60;;;21.00
69007;BMP180;56061;51.748;19.620;2022-08-19T03:52:03;98445.20;;;21.00
69007;BMP180;56061;51.748;19.620;2022-08-19T03:54:34;98445.40;;;21.00
69007;BMP180;56061;51.748;19.620;2022-08-19T03:57:02;98447.40;;;21.06
69007;BMP180;56061;51.748;19.620;2022-08-19T03:59:33;98453.20;;;21.10
69007;BMP180;56061;51.748;19.620;2022-08-19T04:02:03;98455.00;;;21.10
69007;BMP180;56061;51.748;19.620;2022-08-19T04:04:31;98457.20;;;21.18
69007;BMP180;56061;51.748;19.620;2022-08-19T04:06:58;98454.60;;;21.20
69007;BMP180;56061;51.748;19.620;2022-08-19T04:09:25;98447.40;;;21.30
69007;BMP180;56061;51.748;19.620;2022-08-19T04:11:55;98449.60;;;21.30
69007;BMP180;56061;51.748;19.620;2022-08-19T04:14:28;98446.60;;;21.40
69007;BMP180;56061;51.748;19.620;2022-08-19T04:16:59;98449.60;;;21.50
69007;BMP180;56061;51.748;19.620;2022-08-19T04:19:28;98450.80;;;21.60
69007;BMP180;56061;51.748;19.620;2022-08-19T04:21:55;98456.60;;;21.60
69007;BMP180;56061;51.748;19.620;2022-08-19T04:24:22;98468.40;;;21.68
69007;BMP180;56061;51.748;19.620;2022-08-19T04:26:50;98473.80;;;21.70
69007;BMP180;56061;51.748;19.620;2022-08-19T04:29:22;98472.40;;;21.78
69007;BMP180;56061;51.748;19.620;2022-08-19T04:31:54;98470.20;;;21.80
69007;BMP180;56061;51.748;19.620;2022-08-19T04:34:24;98467.60;;;21.90
69007;BMP180;56061;51.748;19.620;2022-08-19T04:36:53;98462.20;;;21.90
69007;BMP180;56061;51.748;19.620;2022-08-19T04:39:25;98451.80;;;22.00
69007;BMP180;56061;51.748;19.620;2022-08-19T04:42:17;98442.60;;;22.10
69007;BMP180;56061;51.748;19.620;2022-08-19T04:45:07;98434.80;;;22.14
69007;BMP180;56061;51.748;19.620;2022-08-19T04:47:40;98438.40;;;22.20
69007;BMP180;56061;51.748;19.620;2022-08-19T04:50:26;98443.40;;;22.30
69007;BMP180;56061;51.748;19.620;2022-08-19T04:52:53;98446.40;;;22.30
69007;BMP180;56061;51.748;19.620;2022-08-19T04:55:21;98449.80;;;22.40
69007;BMP180;56061;51.748;19.620;2022-08-19T04:57:48;98442.60;;;22.50
69007;BMP180;56061;51.748;19.620;2022-08-19T05:00:15;98435.40;;;22.50
69007;BMP180;56061;51.748;19.620;2022-08-19T05:02:42;98434.00;;;22.56
69007;BMP180;56061;51.748;19.620;2022-08-19T05:05:09;98442.60;;;22.60
69007;BMP180;56061;51.748;19.620;2022-08-19T05:07:36;98455.40;;;22.60
69007;BMP180;56061;51.748;19.620;2022-08-19T05:10:05;98467.20;;;22.70
69007;BMP180;56061;51.748;19.620;2022-08-19T05:12:32;98466.60;;;22.70
69007;BMP180;56061;51.748;19.620;2022-08-19T05:14:59;98467.20;;;22.80
69007;BMP180;56061;51.748;19.620;2022-08-19T05:17:27;98465.80;;;22.90
69007;BMP180;56061;51.748;19.620;2022-08-19T05:20:00;98461.20;;;22.90
69007;BMP180;56061;51.748;19.620;2022-08-19T05:22:47;98460.00;;;23.00
69007;BMP180;56061;51.748;19.620;2022-08-19T05:25:19;98460.80;;;23.00
69007;BMP180;56061;51.748;19.620;2022-08-19T05:27:47;98460.80;;;23.10
69007;BMP180;56061;51.748;19.620;2022-08-19T05:30:15;98460.60;;;23.12
69007;BMP180;56061;51.748;19.620;2022-08-19T05:32:43;98459.00;;;23.20
69007;BMP180;56061;51.748;19.620;2022-08-19T05:35:10;98457.00;;;23.30
69007;BMP180;56061;51.748;19.620;2022-08-19T05:37:38;98462.20;;;23.30
69007;BMP180;56061;51.748;19.620;2022-08-19T05:40:09;98461.20;;;23.40
69007;BMP180;56061;51.748;19.620;2022-08-19T05:42:36;98460.20;;;23.50
69007;BMP180;56061;51.748;19.620;2022-08-19T05:45:04;98466.20;;;23.52
69007;BMP180;56061;51.748;19.620;2022-08-19T05:47:31;98475.80;;;23.60
69007;BMP180;56061;51.748;19.620;2022-08-19T05:49:58;98474.20;;;23.70
69007;BMP180;56061;51.748;19.620;2022-08-19T05:52:25;98470.40;;;23.80
69007;BMP180;56061;51.748;19.620;2022-08-19T05:54:55;98467.00;;;23.82
69007;BMP180;56061;51.748;19.620;2022-08-19T05:57:23;98469.80;;;23.90
69007;BMP180;56061;51.748;19.620;2022-08-19T05:59:51;98469.80;;;24.00
69007;BMP180;56061;51.748;19.620;2022-08-19T06:02:26;98471.40;;;24.00
69007;BMP180;56061;51.748;19.620;2022-08-19T06:04:53;98462.40;;;24.10
69007;BMP180;56061;51.748;19.620;2022-08-19T06:07:19;98459.40;;;24.20
69007;BMP180;56061;51.748;19.620;2022-08-19T06:09:46;98466.00;;;24.20
69007;BMP180;56061;51.748;19.620;2022-08-19T06:12:31;98471.20;;;24.30
69007;BMP180;56061;51.748;19.620;2022-08-19T06:15:11;98457.80;;;24.40
69007;BMP180;56061;51.748;19.620;2022-08-19T06:17:37;98467.40;;;24.50
69007;BMP180;56061;51.748;19.620;2022-08-19T06:20:12;98471.60;;;24.50
69007;BMP180;56061;51.748;19.620;2022-08-19T06:22:42;98473.80;;;24.60
69007;BMP180;56061;51.748;19.620;2022-08-19T06:25:12;98478.60;;;24.60
69007;BMP180;56061;51.748;19.620;2022-08-19T06:27:41;98484.60;;;24.70
69007;BMP180;56061;51.748;19.620;2022-08-19T06:30:28;98491.00;;;24.80
69007;BMP180;56061;51.748;19.620;2022-08-19T06:32:54;98496.20;;;24.82
69007;BMP180;56061;51.748;19.620;2022-08-19T06:35:21;98499.20;;;24.90
69007;BMP180;56061;51.748;19.620;2022-08-19T06:37:48;98489.00;;;25.00
69007;BMP180;56061;51.748;19.620;2022-08-19T06:40:14;98484.40;;;25.10
69007;BMP180;56061;51.748;19.620;2022-08-19T06:42:41;98481.20;;;25.20
69007;BMP180;56061;51.748;19.620;2022-08-19T06:45:19;98479.60;;;25.30
69007;BMP180;56061;51.748;19.620;2022-08-19T06:47:51;98479.20;;;25.40
69007;BMP180;56061;51.748;19.620;2022-08-19T06:50:25;98475.60;;;25.50
69007;BMP180;56061;51.748;19.620;2022-08-19T06:52:51;98471.60;;;25.64
69007;BMP180;56061;51.748;19.620;2022-08-19T06:55:19;98472.80;;;25.80
69007;BMP180;56061;51.748;19.620;2022-08-19T06:57:45;98473.00;;;25.90
69007;BMP180;56061;51.748;19.620;2022-08-19T07:00:13;98475.20;;;26.00
69007;BMP180;56061;51.748;19.620;2022-08-19T07:02:44;98467.20;;;26.10
69007;BMP180;56061;51.748;19.620;2022-08-19T07:05:22;98465.60;;;26.20
69007;BMP180;56061;51.748;19.620;2022-08-19T07:07:49;98465.60;;;26.30
69007;BMP180;56061;51.748;19.620;2022-08-19T07:10:17;98465.20;;;26.40
69007;BMP180;56061;51.748;19.620;2022-08-19T07:12:43;98471.60;;;26.50
69007;BMP180;56061;51.748;19.620;2022-08-19T07:15:11;98472.60;;;26.56
69007;BMP180;56061;51.748;19.620;2022-08-19T07:17:38;98482.60;;;26.60
69007;BMP180;56061;51.748;19.620;2022-08-19T07:20:09;98489.20;;;26.66
69007;BMP180;56061;51.748;19.620;2022-08-19T07:22:39;98485.80;;;26.70
69007;BMP180;56061;51.748;19.620;2022-08-19T07:25:08;98477.20;;;26.70
69007;BMP180;56061;51.748;19.620;2022-08-19T07:27:35;98474.80;;;26.70
69007;BMP180;56061;51.748;19.620;2022-08-19T07:30:07;98475.60;;;26.70
69007;BMP180;56061;51.748;19.620;2022-08-19T07:32:37;98472.00;;;26.80
69007;BMP180;56061;51.748;19.620;2022-08-19T07:35:05;98472.40;;;26.80
69007;BMP180;56061;51.748;19.620;2022-08-19T07:37:32;98478.60;;;26.84
69007;BMP180;56061;51.748;19.620;2022-08-19T07:40:00;98483.00;;;26.90
69007;BMP180;56061;51.748;19.620;2022-08-19T07:42:28;98483.80;;;26.90
69007;BMP180;56061;51.748;19.620;2022-08-19T07:44:56;98486.40;;;27.00
69007;BMP180;56061;51.748;19.620;2022-08-19T07:47:23;98486.20;;;27.00
69007;BMP180;56061;51.748;19.620;2022-08-19T07:50:10;98489.80;;;27.10
69007;BMP180;56061;51.748;19.620;2022-08-19T07:52:38;98498.20;;;27.20
69007;BMP180;56061;51.748;19.620;2022-08-19T07:55:09;98500.60;;;27.22
69007;BMP180;56061;51.748;19.620;2022-08-19T07:57:56;98505.40;;;27.30
69007;BMP180;56061;51.748;19.620;2022-08-19T08:00:23;98506.20;;;27.40
69007;BMP180;56061;51.748;19.620;2022-08-19T08:02:52;98508.20;;;27.42
69007;BMP180;56061;51.748;19.620;2022-08-19T08:05:23;98506.80;;;27.50
69007;BMP180;56061;51.748;19.620;2022-08-19T08:08:11;98507.80;;;27.54
69007;BMP180;56061;51.748;19.620;2022-08-19T08:10:58;98503.40;;;27.60
69007;BMP180;56061;51.748;19.620;2022-08-19T08:13:25;98504.40;;;27.70
69007;BMP180;56061;51.748;19.620;2022-08-19T08:15:53;98507.40;;;27.76
69007;BMP180;56061;51.748;19.620;2022-08-19T08:18:21;98508.80;;;27.80
69007;BMP180;56061;51.748;19.620;2022-08-19T08:20:53;98508.60;;;27.80
69007;BMP180;56061;51.748;19.620;2022-08-19T08:23:20;98506.20;;;27.86
69007;BMP180;56061;51.748;19.620;2022-08-19T08:25:54;98504.40;;;27.90
69007;BMP180;56061;51.748;19.620;2022-08-19T08:28:22;98508.00;;;28.00
69007;BMP180;56061;51.748;19.620;2022-08-19T08:30:50;98517.00;;;28.00
69007;BMP180;56061;51.748;19.620;2022-08-19T08:33:24;98523.00;;;28.10
69007;BMP180;56061;51.748;19.620;2022-08-19T08:36:05;98522.60;;;28.20
69007;BMP180;56061;51.748;19.620;2022-08-19T08:38:32;98520.60;;;28.30
69007;BMP180;56061;51.748;19.620;2022-08-19T08:41:44;98519.60;;;28.32
69007;BMP180;56061;51.748;19.620;2022-08-19T08:44:17;98514.80;;;28.50
69007;BMP180;56061;51.748;19.620;2022-08-19T08:46:53;98522.40;;;28.52
69007;BMP180;56061;51.748;19.620;2022-08-19T08:54:39;98515.80;;;28.80
69007;BMP180;56061;51.748;19.620;2022-08-19T08:57:39;98512.40;;;28.90
69007;BMP180;56061;51.748;19.620;2022-08-19T09:00:25;98511.00;;;29.00
69007;BMP180;56061;51.748;19.620;2022-08-19T09:02:54;98515.00;;;29.00
69007;BMP180;56061;51.748;19.620;2022-08-19T09:05:25;98520.40;;;29.00
69007;BMP180;56061;51.748;19.620;2022-08-19T09:11:10;98527.00;;;29.20
69007;BMP180;56061;51.748;19.620;2022-08-19T09:13:53;98529.40;;;29.30
69007;BMP180;56061;51.748;19.620;2022-08-19T09:16:22;98528.80;;;29.40
69007;BMP180;56061;51.748;19.620;2022-08-19T09:19:03;98528.00;;;29.50
69007;BMP180;56061;51.748;19.620;2022-08-19T09:21:32;98526.00;;;29.54
69007;BMP180;56061;51.748;19.620;2022-08-19T09:24:00;98522.00;;;29.60
69007;BMP180;56061;51.748;19.620;2022-08-19T09:26:29;98522.80;;;29.70
69007;BMP180;56061;51.748;19.620;2022-08-19T09:29:18;98522.60;;;29.76
69007;BMP180;56061;51.748;19.620;2022-08-19T09:31:48;98522.00;;;29.80
69007;BMP180;56061;51.748;19.620;2022-08-19T09:34:16;98521.40;;;29.90
69007;BMP180;56061;51.748;19.620;2022-08-19T09:36:49;98517.00;;;29.90
69007;BMP180;56061;51.748;19.620;2022-08-19T09:39:20;98516.60;;;30.00
69007;BMP180;56061;51.748;19.620;2022-08-19T09:41:47;98517.20;;;30.08
69007;BMP180;56061;51.748;19.620;2022-08-19T09:44:15;98514.00;;;30.00
69007;BMP180;56061;51.748;19.620;2022-08-19T09:46:43;98513.00;;;30.10
69007;BMP180;56061;51.748;19.620;2022-08-19T09:49:10;98513.60;;;30.12
69007;BMP180;56061;51.748;19.620;2022-08-19T09:51:38;98509.80;;;30.20
69007;BMP180;56061;51.748;19.620;2022-08-19T09:54:06;98506.20;;;30.28
69007;BMP180;56061;51.748;19.620;2022-08-19T09:56:36;98506.40;;;30.30
69007;BMP180;56061;51.748;19.620;2022-08-19T09:59:03;98502.80;;;30.30
69007;BMP180;56061;51.748;19.620;2022-08-19T10:01:31;98500.60;;;30.34
69007;BMP180;56061;51.748;19.620;2022-08-19T10:04:00;98499.80;;;30.40
69007;BMP180;56061;51.748;19.620;2022-08-19T10:06:40;98505.00;;;30.50
69007;BMP180;56061;51.748;19.620;2022-08-19T10:09:14;98507.40;;;30.60
69007;BMP180;56061;51.748;19.620;2022-08-19T10:11:43;98512.80;;;30.70
69007;BMP180;56061;51.748;19.620;2022-08-19T10:14:20;98509.80;;;30.80
69007;BMP180;56061;51.748;19.620;2022-08-19T10:16:50;98508.40;;;30.90
69007;BMP180;56061;51.748;19.620;2022-08-19T10:19:19;98511.20;;;31.00
69007;BMP180;56061;51.748;19.620;2022-08-19T10:21:52;98503.60;;;31.08
69007;BMP180;56061;51.748;19.620;2022-08-19T10:24:21;98508.00;;;31.18
69007;BMP180;56061;51.748;19.620;2022-08-19T10:26:50;98500.40;;;31.20
69007;BMP180;56061;51.748;19.620;2022-08-19T10:29:22;98498.20;;;31.30
69007;BMP180;56061;51.748;19.620;2022-08-19T10:32:00;98492.80;;;31.30
69007;BMP180;56061;51.748;19.620;2022-08-19T10:34:30;98496.00;;;31.40
69007;BMP180;56061;51.748;19.620;2022-08-19T10:36:58;98495.20;;;31.50
69007;BMP180;56061;51.748;19.620;2022-08-19T10:39:29;98489.80;;;31.52
69007;BMP180;56061;51.748;19.620;2022-08-19T10:41:57;98492.40;;;31.60
69007;BMP180;56061;51.748;19.620;2022-08-19T10:44:24;98486.60;;;31.60
69007;BMP180;56061;51.748;19.620;2022-08-19T10:46:58;98491.40;;;31.68
69007;BMP180;56061;51.748;19.620;2022-08-19T10:49:26;98493.40;;;31.70
69007;BMP180;56061;51.748;19.620;2022-08-19T10:51:56;98494.20;;;31.80
69007;BMP180;56061;51.748;19.620;2022-08-19T10:54:46;98493.60;;;31.90
69007;BMP180;56061;51.748;19.620;2022-08-19T10:57:34;98487.40;;;32.00
69007;BMP180;56061;51.748;19.620;2022-08-19T11:00:22;98489.20;;;32.06
69007;BMP180;56061;51.748;19.620;2022-08-19T11:02:50;98489.40;;;32.10
69007;BMP180;56061;51.748;19.620;2022-08-19T11:05:17;98497.00;;;32.20
69007;BMP180;56061;51.748;19.620;2022-08-19T11:07:45;98492.40;;;32.30
69007;BMP180;56061;51.748;19.620;2022-08-19T11:10:14;98489.00;;;32.30
69007;BMP180;56061;51.748;19.620;2022-08-19T11:12:47;98479.80;;;32.40
69007;BMP180;56061;51.748;19.620;2022-08-19T11:15:14;98476.00;;;32.40
69007;BMP180;56061;51.748;19.620;2022-08-19T11:17:41;98479.60;;;32.42
69007;BMP180;56061;51.748;19.620;2022-08-19T11:20:12;98478.00;;;32.50
69007;BMP180;56061;51.748;19.620;2022-08-19T11:22:40;98471.20;;;32.60
69007;BMP180;56061;51.748;19.620;2022-08-19T11:25:10;98465.40;;;32.70
69007;BMP180;56061;51.748;19.620;2022-08-19T11:27:41;98460.80;;;32.80
69007;BMP180;56061;51.748;19.620;2022-08-19T11:30:12;98463.80;;;32.80
69007;BMP180;56061;51.748;19.620;2022-08-19T11:32:42;98455.20;;;32.80
69007;BMP180;56061;51.748;19.620;2022-08-19T11:35:15;98448.40;;;32.90
69007;BMP180;56061;51.748;19.620;2022-08-19T11:37:42;98445.80;;;32.90
69007;BMP180;56061;51.748;19.620;2022-08-19T11:40:10;98440.60;;;33.00
69007;BMP180;56061;51.748;19.620;2022-08-19T11:42:37;98438.80;;;33.04
69007;BMP180;56061;51.748;19.620;2022-08-19T11:45:27;98438.60;;;33.10
69007;BMP180;56061;51.748;19.620;2022-08-19T11:47:55;98439.60;;;33.10
69007;BMP180;56061;51.748;19.620;2022-08-19T11:50:23;98444.20;;;33.20
69007;BMP180;56061;51.748;19.620;2022-08-19T11:52:55;98446.00;;;33.20
69007;BMP180;56061;51.748;19.620;2022-08-19T11:55:23;98443.20;;;33.30
69007;BMP180;56061;51.748;19.620;2022-08-19T11:57:49;98445.00;;;33.38
69007;BMP180;56061;51.748;19.620;2022-08-19T12:00:16;98443.00;;;33.42
69007;BMP180;56061;51.748;19.620;2022-08-19T12:02:43;98447.40;;;33.50
69007;BMP180;56061;51.748;19.620;2022-08-19T12:05:09;98449.00;;;33.60
69007;BMP180;56061;51.748;19.620;2022-08-19T12:07:39;98450.00;;;33.60
69007;BMP180;56061;51.748;19.620;2022-08-19T12:10:07;98448.00;;;33.70
69007;BMP180;56061;51.748;19.620;2022-08-19T12:12:36;98449.40;;;33.70
69007;BMP180;56061;51.748;19.620;2022-08-19T12:15:10;98445.80;;;33.74
69007;BMP180;56061;51.748;19.620;2022-08-19T12:17:38;98447.00;;;33.80
69007;BMP180;56061;51.748;19.620;2022-08-19T12:20:05;98447.60;;;33.80
69007;BMP180;56061;51.748;19.620;2022-08-19T12:22:33;98446.00;;;33.90
69007;BMP180;56061;51.748;19.620;2022-08-19T12:25:01;98447.60;;;34.00
69007;BMP180;56061;51.748;19.620;2022-08-19T12:27:27;98444.40;;;34.00
69007;BMP180;56061;51.748;19.620;2022-08-19T12:30:09;98436.20;;;34.00
69007;BMP180;56061;51.748;19.620;2022-08-19T12:32:37;98433.40;;;34.00
69007;BMP180;56061;51.748;19.620;2022-08-19T12:35:05;98432.60;;;34.10
69007;BMP180;56061;51.748;19.620;2022-08-19T12:37:32;98432.80;;;34.20
69007;BMP180;56061;51.748;19.620;2022-08-19T12:39:59;98436.40;;;34.30
69007;BMP180;56061;51.748;19.620;2022-08-19T12:42:26;98438.00;;;34.30
69007;BMP180;56061;51.748;19.620;2022-08-19T12:44:53;98441.20;;;34.30
69007;BMP180;56061;51.748;19.620;2022-08-19T12:47:19;98441.20;;;34.30
69007;BMP180;56061;51.748;19.620;2022-08-19T12:49:48;98443.60;;;34.40
69007;BMP180;56061;51.748;19.620;2022-08-19T12:52:21;98445.40;;;34.40
69007;BMP180;56061;51.748;19.620;2022-08-19T12:54:50;98442.40;;;34.40
69007;BMP180;56061;51.748;19.620;2022-08-19T12:57:22;98439.80;;;34.40
69007;BMP180;56061;51.748;19.620;2022-08-19T13:00:10;98439.20;;;34.50
69007;BMP180;56061;51.748;19.620;2022-08-19T13:02:41;98440.00;;;34.58
69007;BMP180;56061;51.748;19.620;2022-08-19T13:05:14;98442.00;;;34.60
69007;BMP180;56061;51.748;19.620;2022-08-19T13:07:43;98442.60;;;34.64
69007;BMP180;56061;51.748;19.620;2022-08-19T13:10:13;98446.40;;;34.70
69007;BMP180;56061;51.748;19.620;2022-08-19T13:12:44;98443.20;;;34.80
69007;BMP180;56061;51.748;19.620;2022-08-19T13:15:11;98442.00;;;34.90
69007;BMP180;56061;51.748;19.620;2022-08-19T13:17:41;98443.00;;;35.00
69007;BMP180;56061;51.748;19.620;2022-08-19T13:20:09;98444.40;;;35.00
69007;BMP180;56061;51.748;19.620;2022-08-19T13:22:37;98440.20;;;35.00
69007;BMP180;56061;51.748;19.620;2022-08-19T13:25:05;98443.20;;;34.90
69007;BMP180;56061;51.748;19.620;2022-08-19T13:27:32;98447.00;;;35.00
69007;BMP180;56061;51.748;19.620;2022-08-19T13:30:00;98446.20;;;35.00
69007;BMP180;56061;51.748;19.620;2022-08-19T13:32:45;98447.40;;;35.00
69007;BMP180;56061;51.748;19.620;2022-08-19T13:35:31;98442.20;;;34.90
69007;BMP180;56061;51.748;19.620;2022-08-19T13:37:57;98437.80;;;34.80
69007;BMP180;56061;51.748;19.620;2022-08-19T13:40:25;98441.00;;;34.80
69007;BMP180;56061;51.748;19.620;2022-08-19T13:42:54;98437.80;;;34.68
69007;BMP180;56061;51.748;19.620;2022-08-19T13:45:24;98433.20;;;34.60
69007;BMP180;56061;51.748;19.620;2022-08-19T13:47:54;98431.40;;;34.68
69007;BMP180;56061;51.748;19.620;2022-08-19T13:50:30;98431.60;;;34.70
69007;BMP180;56061;51.748;19.620;2022-08-19T13:53:01;98428.80;;;34.80
69007;BMP180;56061;51.748;19.620;2022-08-19T13:55:28;98432.00;;;34.92
69007;BMP180;56061;51.748;19.620;2022-08-19T13:57:58;98427.00;;;35.10
69007;BMP180;56061;51.748;19.620;2022-08-19T14:00:29;98425.00;;;35.10
69007;BMP180;56061;51.748;19.620;2022-08-19T14:02:57;98430.00;;;35.20
69007;BMP180;56061;51.748;19.620;2022-08-19T14:05:27;98425.60;;;35.16
69007;BMP180;56061;51.748;19.620;2022-08-19T14:07:55;98426.80;;;35.10
69007;BMP180;56061;51.748;19.620;2022-08-19T14:10:23;98423.20;;;35.10
69007;BMP180;56061;51.748;19.620;2022-08-19T14:13:01;98416.60;;;35.20
69007;BMP180;56061;51.748;19.620;2022-08-19T14:15:29;98417.40;;;35.30
69007;BMP180;56061;51.748;19.620;2022-08-19T14:17:56;98420.80;;;35.50
69007;BMP180;56061;51.748;19.620;2022-08-19T14:20:23;98413.20;;;35.60
69007;BMP180;56061;51.748;19.620;2022-08-19T14:22:52;98419.40;;;35.60
69007;BMP180;56061;51.748;19.620;2022-08-19T14:25:26;98411.20;;;35.62
69007;BMP180;56061;51.748;19.620;2022-08-19T14:27:53;98417.60;;;35.70
69007;BMP180;56061;51.748;19.620;2022-08-19T14:30:33;98412.40;;;35.80
69007;BMP180;56061;51.748;19.620;2022-08-19T14:33:01;98414.20;;;35.82
69007;BMP180;56061;51.748;19.620;2022-08-19T14:35:31;98413.80;;;35.90